sensor_id;sensor_type;location;lat;lon;timestamp;temperature;humidity
5775;DHT22;2913;51.120;6.772;2023-07-31T00:02:20;17.40;99.90
5775;DHT22;2913;51.120;6.772;2023-07-31T00:04:46;17.40;99.90
5775;DHT22;2913;51.120;6.772;2023-07-31T00:07:12;17.50;99.90
5775;DHT22;2913;51.120;6.772;2023-07-31T00:09:38;17.50;99.90
5775;DHT22;2913;51.120;6.772;2023-07-31T00:12:06;17.50;99.90
5775;DHT22;2913;51.120;6.772;2023-07-31T00:14:32;17.50;99.90
5775;DHT22;2913;51.120;6.772;2023-07-31T00:16:57;17.50;99.90
5775;DHT22;2913;51.120;6.772;2023-07-31T00:19:25;17.50;99.90
5775;DHT22;2913;51.120;6.772;2023-07-31T00:21:51;17.50;99.90
5775;DHT22;2913;51.120;6.772;2023-07-31T00:24:16;17.50;99.90
5775;DHT22;2913;51.120;6.772;2023-07-31T00:26:42;17.50;99.90
5775;DHT22;2913;51.120;6.772;2023-07-31T00:29:07;17.40;99.90
5775;DHT22;2913;51.120;6.772;2023-07-31T00:34:01;17.40;99.90
5775;DHT22;2913;51.120;6.772;2023-07-31T00:36:27;17.50;99.90
5775;DHT22;2913;51.120;6.772;2023-07-31T00:38:52;17.50;99.90
5775;DHT22;2913;51.120;6.772;2023-07-31T00:41:18;17.50;99.90
5775;DHT22;2913;51.120;6.772;2023-07-31T00:43:43;17.60;99.90
5775;DHT22;2913;51.120;6.772;2023-07-31T00:46:09;17.50;99.90
5775;DHT22;2913;51.120;6.772;2023-07-31T00:48:35;17.50;99.90
5775;DHT22;2913;51.120;6.772;2023-07-31T00:51:01;17.60;99.90
5775;DHT22;2913;51.120;6.772;2023-07-31T00:53:27;17.50;99.90
5775;DHT22;2913;51.120;6.772;2023-07-31T00:55:53;17.60;99.90
5775;DHT22;2913;51.120;6.772;2023-07-31T00:58:21;17.50;99.90
5775;DHT22;2913;51.120;6.772;2023-07-31T01:00:47;17.60;99.90
5775;DHT22;2913;51.120;6.772;2023-07-31T01:03:13;17.60;99.90
5775;DHT22;2913;51.120;6.772;2023-07-31T01:11:15;17.50;99.90
5775;DHT22;2913;51.120;6.772;2023-07-31T01:13:44;17.60;99.90
5775;DHT22;2913;51.120;6.772;2023-07-31T01:16:09;17.60;99.90
5775;DHT22;2913;51.120;6.772;2023-07-31T01:18:35;17.60;99.90
5775;DHT22;2913;51.120;6.772;2023-07-31T01:21:37;17.60;99.90
5775;DHT22;2913;51.120;6.772;2023-07-31T01:27:15;17.50;99.90
5775;DHT22;2913;51.120;6.772;2023-07-31T01:32:25;17.50;99.90
5775;DHT22;2913;51.120;6.772;2023-07-31T01:34:52;17.50;99.90
5775;DHT22;2913;51.120;6.772;2023-07-31T01:37:18;17.60;99.90
5775;DHT22;2913;51.120;6.772;2023-07-31T01:39:47;17.60;99.90
5775;DHT22;2913;51.120;6.772;2023-07-31T01:42:12;17.60;99.90
5775;DHT22;2913;51.120;6.772;2023-07-31T01:44:40;17.50;99.90
5775;DHT22;2913;51.120;6.772;2023-07-31T01:47:06;17.50;99.90
5775;DHT22;2913;51.120;6.772;2023-07-31T01:49:33;17.50;99.90
5775;DHT22;2913;51.120;6.772;2023-07-31T01:51:59;17.60;99.90
5775;DHT22;2913;51.120;6.772;2023-07-31T01:54:27;17.60;99.90
5775;DHT22;2913;51.120;6.772;2023-07-31T01:56:57;17.50;99.90
5775;DHT22;2913;51.120;6.772;2023-07-31T01:59:23;17.50;99.90
5775;DHT22;2913;51.120;6.772;2023-07-31T02:01:51;17.50;99.90
5775;DHT22;2913;51.120;6.772;2023-07-31T02:04:16;17.50;99.90
5775;DHT22;2913;51.120;6.772;2023-07-31T02:06:43;17.50;99.90
5775;DHT22;2913;51.120;6.772;2023-07-31T02:09:09;17.60;99.90
5775;DHT22;2913;51.120;6.772;2023-07-31T02:11:37;17.60;99.90
5775;DHT22;2913;51.120;6.772;2023-07-31T02:14:03;17.50;99.90
5775;DHT22;2913;51.120;6.772;2023-07-31T02:16:28;17.60;99.90
5775;DHT22;2913;51.120;6.772;2023-07-31T02:18:54;17.60;99.90
5775;DHT22;2913;51.120;6.772;2023-07-31T02:21:19;17.60;99.90
5775;DHT22;2913;51.120;6.772;2023-07-31T02:26:13;17.60;99.90
5775;DHT22;2913;51.120;6.772;2023-07-31T02:28:39;17.60;99.90
5775;DHT22;2913;51.120;6.772;2023-07-31T02:31:08;17.60;99.90
5775;DHT22;2913;51.120;6.772;2023-07-31T02:33:36;17.60;99.90
5775;DHT22;2913;51.120;6.772;2023-07-31T02:36:04;17.60;99.90
5775;DHT22;2913;51.120;6.772;2023-07-31T02:38:32;17.60;99.90
5775;DHT22;2913;51.120;6.772;2023-07-31T02:40:59;17.60;99.90
5775;DHT22;2913;51.120;6.772;2023-07-31T02:43:28;17.60;99.90
5775;DHT22;2913;51.120;6.772;2023-07-31T02:46:00;17.70;99.90
5775;DHT22;2913;51.120;6.772;2023-07-31T02:48:28;17.70;99.90
5775;DHT22;2913;51.120;6.772;2023-07-31T02:50:53;17.70;99.90
5775;DHT22;2913;51.120;6.772;2023-07-31T02:53:19;17.60;99.90
5775;DHT22;2913;51.120;6.772;2023-07-31T02:55:45;17.70;99.90
5775;DHT22;2913;51.120;6.772;2023-07-31T02:58:15;17.70;99.90
5775;DHT22;2913;51.120;6.772;2023-07-31T03:00:44;17.70;99.90
5775;DHT22;2913;51.120;6.772;2023-07-31T03:03:10;17.70;99.90
5775;DHT22;2913;51.120;6.772;2023-07-31T03:05:36;17.70;99.90
5775;DHT22;2913;51.120;6.772;2023-07-31T03:08:04;17.80;99.90
5775;DHT22;2913;51.120;6.772;2023-07-31T03:10:29;17.80;99.90
5775;DHT22;2913;51.120;6.772;2023-07-31T03:12:55;17.70;99.90
5775;DHT22;2913;51.120;6.772;2023-07-31T03:15:20;17.80;99.90
5775;DHT22;2913;51.120;6.772;2023-07-31T03:17:46;17.70;99.90
5775;DHT22;2913;51.120;6.772;2023-07-31T03:20:12;17.70;99.90
5775;DHT22;2913;51.120;6.772;2023-07-31T03:22:40;17.70;99.90
5775;DHT22;2913;51.120;6.772;2023-07-31T03:25:06;17.80;99.90
5775;DHT22;2913;51.120;6.772;2023-07-31T03:27:35;17.80;99.90
5775;DHT22;2913;51.120;6.772;2023-07-31T03:30:02;17.80;99.90
5775;DHT22;2913;51.120;6.772;2023-07-31T03:32:28;17.80;99.90
5775;DHT22;2913;51.120;6.772;2023-07-31T03:34:54;17.80;99.90
5775;DHT22;2913;51.120;6.772;2023-07-31T03:37:19;17.80;99.90
5775;DHT22;2913;51.120;6.772;2023-07-31T03:39:47;17.80;99.90
5775;DHT22;2913;51.120;6.772;2023-07-31T03:42:12;17.80;99.90
5775;DHT22;2913;51.120;6.772;2023-07-31T03:44:40;17.80;99.90
5775;DHT22;2913;51.120;6.772;2023-07-31T03:47:08;17.80;99.90
5775;DHT22;2913;51.120;6.772;2023-07-31T03:49:34;17.70;99.90
5775;DHT22;2913;51.120;6.772;2023-07-31T03:52:00;17.70;99.90
5775;DHT22;2913;51.120;6.772;2023-07-31T03:54:25;17.70;99.90
5775;DHT22;2913;51.120;6.772;2023-07-31T03:56:51;17.70;99.90
5775;DHT22;2913;51.120;6.772;2023-07-31T03:59:16;17.70;99.90
5775;DHT22;2913;51.120;6.772;2023-07-31T04:01:42;17.70;99.90
5775;DHT22;2913;51.120;6.772;2023-07-31T04:04:12;17.70;99.90
5775;DHT22;2913;51.120;6.772;2023-07-31T04:06:40;17.70;99.90
5775;DHT22;2913;51.120;6.772;2023-07-31T04:09:10;17.70;99.90
5775;DHT22;2913;51.120;6.772;2023-07-31T04:11:36;17.70;99.90
5775;DHT22;2913;51.120;6.772;2023-07-31T04:14:03;17.70;99.90
5775;DHT22;2913;51.120;6.772;2023-07-31T04:16:32;17.80;99.90
5775;DHT22;2913;51.120;6.772;2023-07-31T04:18:57;17.80;99.90
5775;DHT22;2913;51.120;6.772;2023-07-31T04:21:25;17.80;99.90
5775;DHT22;2913;51.120;6.772;2023-07-31T04:23:51;17.80;99.90
5775;DHT22;2913;51.120;6.772;2023-07-31T04:26:16;17.80;99.90
5775;DHT22;2913;51.120;6.772;2023-07-31T04:28:42;17.80;99.90
5775;DHT22;2913;51.120;6.772;2023-07-31T04:31:08;17.80;99.90
5775;DHT22;2913;51.120;6.772;2023-07-31T04:33:34;17.80;99.90
5775;DHT22;2913;51.120;6.772;2023-07-31T04:36:02;17.80;99.90
5775;DHT22;2913;51.120;6.772;2023-07-31T04:38:30;17.90;99.90
5775;DHT22;2913;51.120;6.772;2023-07-31T04:40:57;17.80;99.90
5775;DHT22;2913;51.120;6.772;2023-07-31T04:43:23;17.80;99.90
5775;DHT22;2913;51.120;6.772;2023-07-31T04:45:51;17.80;99.90
5775;DHT22;2913;51.120;6.772;2023-07-31T04:48:19;17.80;99.90
5775;DHT22;2913;51.120;6.772;2023-07-31T04:50:47;17.80;99.90
5775;DHT22;2913;51.120;6.772;2023-07-31T04:53:12;17.80;99.90
5775;DHT22;2913;51.120;6.772;2023-07-31T04:55:38;17.80;99.90
5775;DHT22;2913;51.120;6.772;2023-07-31T04:58:06;17.90;99.90
5775;DHT22;2913;51.120;6.772;2023-07-31T05:00:32;17.90;99.90
5775;DHT22;2913;51.120;6.772;2023-07-31T05:02:57;18.00;99.90
5775;DHT22;2913;51.120;6.772;2023-07-31T05:05:23;18.00;99.90
5775;DHT22;2913;51.120;6.772;2023-07-31T05:07:48;18.10;99.90
5775;DHT22;2913;51.120;6.772;2023-07-31T05:10:14;18.10;99.90
5775;DHT22;2913;51.120;6.772;2023-07-31T05:12:40;18.20;99.90
5775;DHT22;2913;51.120;6.772;2023-07-31T05:15:08;18.30;99.90
5775;DHT22;2913;51.120;6.772;2023-07-31T05:17:36;18.30;99.90
5775;DHT22;2913;51.120;6.772;2023-07-31T05:20:02;18.30;99.90
5775;DHT22;2913;51.120;6.772;2023-07-31T05:22:28;18.40;99.90
5775;DHT22;2913;51.120;6.772;2023-07-31T05:24:55;18.30;99.90
5775;DHT22;2913;51.120;6.772;2023-07-31T05:27:21;18.40;99.90
5775;DHT22;2913;51.120;6.772;2023-07-31T05:29:47;18.40;99.90
5775;DHT22;2913;51.120;6.772;2023-07-31T05:32:14;18.40;99.90
5775;DHT22;2913;51.120;6.772;2023-07-31T05:34:40;18.40;99.90
5775;DHT22;2913;51.120;6.772;2023-07-31T05:37:10;18.40;99.90
5775;DHT22;2913;51.120;6.772;2023-07-31T05:39:39;18.40;99.90
5775;DHT22;2913;51.120;6.772;2023-07-31T05:42:05;18.40;99.90
5775;DHT22;2913;51.120;6.772;2023-07-31T05:44:30;18.40;99.90
5775;DHT22;2913;51.120;6.772;2023-07-31T05:46:56;18.40;99.90
5775;DHT22;2913;51.120;6.772;2023-07-31T05:49:21;18.40;99.90
5775;DHT22;2913;51.120;6.772;2023-07-31T05:51:47;18.40;99.90
5775;DHT22;2913;51.120;6.772;2023-07-31T05:54:13;18.40;99.90
5775;DHT22;2913;51.120;6.772;2023-07-31T05:56:38;18.30;99.90
5775;DHT22;2913;51.120;6.772;2023-07-31T05:59:04;18.30;99.90
5775;DHT22;2913;51.120;6.772;2023-07-31T06:01:30;18.40;99.90
5775;DHT22;2913;51.120;6.772;2023-07-31T06:03:55;18.30;99.90
5775;DHT22;2913;51.120;6.772;2023-07-31T06:06:21;18.30;99.90
5775;DHT22;2913;51.120;6.772;2023-07-31T06:08:49;18.30;99.90
5775;DHT22;2913;51.120;6.772;2023-07-31T06:11:15;18.20;99.90
5775;DHT22;2913;51.120;6.772;2023-07-31T06:13:41;18.20;99.90
5775;DHT22;2913;51.120;6.772;2023-07-31T06:16:06;18.10;99.90
5775;DHT22;2913;51.120;6.772;2023-07-31T06:18:32;18.10;99.90
5775;DHT22;2913;51.120;6.772;2023-07-31T06:21:01;18.10;99.90
5775;DHT22;2913;51.120;6.772;2023-07-31T06:23:26;18.10;99.90
5775;DHT22;2913;51.120;6.772;2023-07-31T06:25:52;18.10;99.90
5775;DHT22;2913;51.120;6.772;2023-07-31T06:28:20;18.00;99.90
5775;DHT22;2913;51.120;6.772;2023-07-31T06:30:46;18.10;99.90
5775;DHT22;2913;51.120;6.772;2023-07-31T06:33:13;18.00;99.90
5775;DHT22;2913;51.120;6.772;2023-07-31T06:35:39;18.00;99.90
5775;DHT22;2913;51.120;6.772;2023-07-31T06:38:05;18.10;99.90
5775;DHT22;2913;51.120;6.772;2023-07-31T06:40:33;18.20;99.90
5775;DHT22;2913;51.120;6.772;2023-07-31T06:43:01;18.20;99.90
5775;DHT22;2913;51.120;6.772;2023-07-31T06:45:36;18.20;99.90
5775;DHT22;2913;51.120;6.772;2023-07-31T06:48:05;18.20;99.90
5775;DHT22;2913;51.120;6.772;2023-07-31T06:50:33;18.30;99.90
5775;DHT22;2913;51.120;6.772;2023-07-31T06:53:02;18.30;99.90
5775;DHT22;2913;51.120;6.772;2023-07-31T06:55:28;18.30;99.90
5775;DHT22;2913;51.120;6.772;2023-07-31T06:57:55;18.40;99.90
5775;DHT22;2913;51.120;6.772;2023-07-31T07:00:22;18.40;99.90
5775;DHT22;2913;51.120;6.772;2023-07-31T07:02:48;18.50;99.90
5775;DHT22;2913;51.120;6.772;2023-07-31T07:05:15;18.50;99.90
5775;DHT22;2913;51.120;6.772;2023-07-31T07:07:44;18.50;99.90
5775;DHT22;2913;51.120;6.772;2023-07-31T07:10:10;18.50;99.90
5775;DHT22;2913;51.120;6.772;2023-07-31T07:12:35;18.50;99.90
5775;DHT22;2913;51.120;6.772;2023-07-31T07:15:06;18.50;99.90
5775;DHT22;2913;51.120;6.772;2023-07-31T07:17:34;18.50;99.90
5775;DHT22;2913;51.120;6.772;2023-07-31T07:20:00;18.40;99.90
5775;DHT22;2913;51.120;6.772;2023-07-31T07:22:26;18.40;99.90
5775;DHT22;2913;51.120;6.772;2023-07-31T07:24:53;18.40;99.90
5775;DHT22;2913;51.120;6.772;2023-07-31T07:27:18;18.40;99.90
5775;DHT22;2913;51.120;6.772;2023-07-31T07:29:46;18.30;99.90
5775;DHT22;2913;51.120;6.772;2023-07-31T07:32:14;18.40;99.90
5775;DHT22;2913;51.120;6.772;2023-07-31T07:34:42;18.30;99.90
5775;DHT22;2913;51.120;6.772;2023-07-31T07:37:08;18.30;99.90
5775;DHT22;2913;51.120;6.772;2023-07-31T07:39:36;18.30;99.90
5775;DHT22;2913;51.120;6.772;2023-07-31T07:42:01;18.30;99.90
5775;DHT22;2913;51.120;6.772;2023-07-31T07:44:27;18.30;99.90
5775;DHT22;2913;51.120;6.772;2023-07-31T07:46:52;18.20;99.90
5775;DHT22;2913;51.120;6.772;2023-07-31T07:49:18;18.20;99.90
5775;DHT22;2913;51.120;6.772;2023-07-31T07:51:44;18.20;99.90
5775;DHT22;2913;51.120;6.772;2023-07-31T07:54:09;18.20;99.90
5775;DHT22;2913;51.120;6.772;2023-07-31T07:56:35;18.20;99.90
5775;DHT22;2913;51.120;6.772;2023-07-31T07:59:03;18.30;99.90
5775;DHT22;2913;51.120;6.772;2023-07-31T08:04:00;18.20;99.90
5775;DHT22;2913;51.120;6.772;2023-07-31T08:06:26;18.20;99.90
5775;DHT22;2913;51.120;6.772;2023-07-31T08:08:52;18.30;99.90
5775;DHT22;2913;51.120;6.772;2023-07-31T08:11:17;18.20;99.90
5775;DHT22;2913;51.120;6.772;2023-07-31T08:13:43;18.20;99.90
5775;DHT22;2913;51.120;6.772;2023-07-31T08:16:09;18.20;99.90
5775;DHT22;2913;51.120;6.772;2023-07-31T08:18:35;18.30;99.90
5775;DHT22;2913;51.120;6.772;2023-07-31T08:21:02;18.30;99.90
5775;DHT22;2913;51.120;6.772;2023-07-31T08:23:28;18.30;99.90
5775;DHT22;2913;51.120;6.772;2023-07-31T08:25:56;18.30;99.90
5775;DHT22;2913;51.120;6.772;2023-07-31T08:28:21;18.40;99.90
5775;DHT22;2913;51.120;6.772;2023-07-31T08:30:47;18.40;99.90
5775;DHT22;2913;51.120;6.772;2023-07-31T08:33:15;18.40;99.90
5775;DHT22;2913;51.120;6.772;2023-07-31T08:35:41;18.50;99.90
5775;DHT22;2913;51.120;6.772;2023-07-31T08:38:07;18.50;99.90
5775;DHT22;2913;51.120;6.772;2023-07-31T08:40:36;18.70;99.90
5775;DHT22;2913;51.120;6.772;2023-07-31T08:43:05;18.80;99.90
5775;DHT22;2913;51.120;6.772;2023-07-31T08:45:34;18.80;99.90
5775;DHT22;2913;51.120;6.772;2023-07-31T08:48:02;18.80;99.90
5775;DHT22;2913;51.120;6.772;2023-07-31T08:50:28;18.90;99.90
5775;DHT22;2913;51.120;6.772;2023-07-31T08:52:53;19.00;99.90
5775;DHT22;2913;51.120;6.772;2023-07-31T08:55:19;19.00;99.90
5775;DHT22;2913;51.120;6.772;2023-07-31T08:57:52;19.00;99.90
5775;DHT22;2913;51.120;6.772;2023-07-31T09:00:21;19.10;99.90
5775;DHT22;2913;51.120;6.772;2023-07-31T09:03:00;19.00;99.90
5775;DHT22;2913;51.120;6.772;2023-07-31T09:05:31;19.00;99.90
5775;DHT22;2913;51.120;6.772;2023-07-31T09:08:00;18.90;99.90
5775;DHT22;2913;51.120;6.772;2023-07-31T09:10:27;18.80;99.90
5775;DHT22;2913;51.120;6.772;2023-07-31T09:12:55;18.70;99.90
5775;DHT22;2913;51.120;6.772;2023-07-31T09:15:22;18.70;99.90
5775;DHT22;2913;51.120;6.772;2023-07-31T09:17:59;18.60;99.90
5775;DHT22;2913;51.120;6.772;2023-07-31T09:20:25;18.70;99.90
5775;DHT22;2913;51.120;6.772;2023-07-31T09:22:51;18.60;99.90
5775;DHT22;2913;51.120;6.772;2023-07-31T09:25:18;18.70;99.90
5775;DHT22;2913;51.120;6.772;2023-07-31T09:30:27;18.80;99.90
5775;DHT22;2913;51.120;6.772;2023-07-31T09:33:04;18.90;99.90
5775;DHT22;2913;51.120;6.772;2023-07-31T09:35:35;19.00;99.90
5775;DHT22;2913;51.120;6.772;2023-07-31T09:38:03;19.10;99.90
5775;DHT22;2913;51.120;6.772;2023-07-31T09:40:36;19.20;99.90
5775;DHT22;2913;51.120;6.772;2023-07-31T09:43:39;19.20;99.90
5775;DHT22;2913;51.120;6.772;2023-07-31T09:46:00;19.20;99.90
5775;DHT22;2913;51.120;6.772;2023-07-31T09:48:28;19.20;99.90
5775;DHT22;2913;51.120;6.772;2023-07-31T09:50:53;19.10;99.90
5775;DHT22;2913;51.120;6.772;2023-07-31T09:53:28;19.10;99.90
5775;DHT22;2913;51.120;6.772;2023-07-31T09:55:58;19.20;99.90
5775;DHT22;2913;51.120;6.772;2023-07-31T09:58:28;19.30;99.90
5775;DHT22;2913;51.120;6.772;2023-07-31T10:00:57;19.30;99.90
5775;DHT22;2913;51.120;6.772;2023-07-31T10:03:24;19.40;99.90
5775;DHT22;2913;51.120;6.772;2023-07-31T10:05:52;19.40;99.90
5775;DHT22;2913;51.120;6.772;2023-07-31T10:08:20;19.40;99.90
5775;DHT22;2913;51.120;6.772;2023-07-31T10:10:49;19.40;99.90
5775;DHT22;2913;51.120;6.772;2023-07-31T10:13:15;19.30;99.90
5775;DHT22;2913;51.120;6.772;2023-07-31T10:15:42;19.40;99.90
5775;DHT22;2913;51.120;6.772;2023-07-31T10:18:13;19.40;99.90
5775;DHT22;2913;51.120;6.772;2023-07-31T10:20:39;19.30;99.90
5775;DHT22;2913;51.120;6.772;2023-07-31T10:23:08;19.30;99.90
5775;DHT22;2913;51.120;6.772;2023-07-31T10:25:37;19.30;99.90
5775;DHT22;2913;51.120;6.772;2023-07-31T10:28:03;19.40;99.90
5775;DHT22;2913;51.120;6.772;2023-07-31T10:30:30;19.40;99.90
5775;DHT22;2913;51.120;6.772;2023-07-31T10:33:02;19.50;99.90
5775;DHT22;2913;51.120;6.772;2023-07-31T10:35:28;19.60;99.90
5775;DHT22;2913;51.120;6.772;2023-07-31T10:37:54;20.00;99.90
5775;DHT22;2913;51.120;6.772;2023-07-31T10:40:25;20.00;99.90
5775;DHT22;2913;51.120;6.772;2023-07-31T10:42:55;20.30;99.90
5775;DHT22;2913;51.120;6.772;2023-07-31T10:48:12;20.40;99.90
5775;DHT22;2913;51.120;6.772;2023-07-31T10:50:40;20.50;99.90
5775;DHT22;2913;51.120;6.772;2023-07-31T10:53:25;20.40;99.90
5775;DHT22;2913;51.120;6.772;2023-07-31T10:55:51;20.50;99.90
5775;DHT22;2913;51.120;6.772;2023-07-31T10:58:20;20.50;99.90
5775;DHT22;2913;51.120;6.772;2023-07-31T11:00:55;20.60;99.90
5775;DHT22;2913;51.120;6.772;2023-07-31T11:03:25;20.50;99.90
5775;DHT22;2913;51.120;6.772;2023-07-31T11:06:04;20.50;99.90
5775;DHT22;2913;51.120;6.772;2023-07-31T11:08:35;20.50;99.90
5775;DHT22;2913;51.120;6.772;2023-07-31T11:11:04;20.70;99.90
5775;DHT22;2913;51.120;6.772;2023-07-31T11:15:57;21.00;99.90
5775;DHT22;2913;51.120;6.772;2023-07-31T11:18:23;21.20;99.90
5775;DHT22;2913;51.120;6.772;2023-07-31T11:20:51;21.40;99.90
5775;DHT22;2913;51.120;6.772;2023-07-31T11:23:17;21.40;99.90
5775;DHT22;2913;51.120;6.772;2023-07-31T11:25:45;21.40;99.90
5775;DHT22;2913;51.120;6.772;2023-07-31T11:28:15;21.40;99.90
5775;DHT22;2913;51.120;6.772;2023-07-31T11:30:42;21.40;99.90
5775;DHT22;2913;51.120;6.772;2023-07-31T11:33:10;21.60;99.90
5775;DHT22;2913;51.120;6.772;2023-07-31T11:35:41;21.50;99.90
5775;DHT22;2913;51.120;6.772;2023-07-31T11:38:07;21.50;99.90
5775;DHT22;2913;51.120;6.772;2023-07-31T11:40:43;21.60;99.90
5775;DHT22;2913;51.120;6.772;2023-07-31T11:43:10;21.50;99.90
5775;DHT22;2913;51.120;6.772;2023-07-31T11:45:37;21.40;99.90
5775;DHT22;2913;51.120;6.772;2023-07-31T11:48:04;21.20;99.90
5775;DHT22;2913;51.120;6.772;2023-07-31T11:50:34;21.10;99.90
5775;DHT22;2913;51.120;6.772;2023-07-31T11:53:07;21.10;99.90
5775;DHT22;2913;51.120;6.772;2023-07-31T11:55:33;21.10;99.90
5775;DHT22;2913;51.120;6.772;2023-07-31T11:57:59;21.20;99.90
5775;DHT22;2913;51.120;6.772;2023-07-31T12:00:26;21.20;99.90
5775;DHT22;2913;51.120;6.772;2023-07-31T12:02:52;21.20;99.90
5775;DHT22;2913;51.120;6.772;2023-07-31T12:05:21;21.20;99.90
5775;DHT22;2913;51.120;6.772;2023-07-31T12:07:51;21.10;99.90
5775;DHT22;2913;51.120;6.772;2023-07-31T12:13:11;21.00;99.90
5775;DHT22;2913;51.120;6.772;2023-07-31T12:15:43;21.20;99.90
5775;DHT22;2913;51.120;6.772;2023-07-31T12:18:14;21.30;99.90
5775;DHT22;2913;51.120;6.772;2023-07-31T12:23:09;21.60;99.90
5775;DHT22;2913;51.120;6.772;2023-07-31T12:25:37;21.60;99.90
5775;DHT22;2913;51.120;6.772;2023-07-31T12:28:07;21.60;99.90
5775;DHT22;2913;51.120;6.772;2023-07-31T12:30:37;21.50;99.90
5775;DHT22;2913;51.120;6.772;2023-07-31T12:33:14;21.50;99.90
5775;DHT22;2913;51.120;6.772;2023-07-31T12:35:49;21.50;99.90
5775;DHT22;2913;51.120;6.772;2023-07-31T12:38:15;21.50;99.90
5775;DHT22;2913;51.120;6.772;2023-07-31T12:40:41;21.50;99.90
5775;DHT22;2913;51.120;6.772;2023-07-31T12:43:09;21.40;99.90
5775;DHT22;2913;51.120;6.772;2023-07-31T12:45:35;21.60;99.90
5775;DHT22;2913;51.120;6.772;2023-07-31T12:48:03;21.50;99.90
5775;DHT22;2913;51.120;6.772;2023-07-31T12:50:29;21.70;99.90
5775;DHT22;2913;51.120;6.772;2023-07-31T12:52:54;21.80;99.90
5775;DHT22;2913;51.120;6.772;2023-07-31T12:55:21;21.90;99.90
5775;DHT22;2913;51.120;6.772;2023-07-31T12:57:47;22.00;99.90
5775;DHT22;2913;51.120;6.772;2023-07-31T13:00:13;21.80;99.90
5775;DHT22;2913;51.120;6.772;2023-07-31T13:02:41;21.80;99.90
5775;DHT22;2913;51.120;6.772;2023-07-31T13:05:09;21.80;99.90
5775;DHT22;2913;51.120;6.772;2023-07-31T13:07:37;21.70;99.90
5775;DHT22;2913;51.120;6.772;2023-07-31T13:10:04;21.80;99.90
5775;DHT22;2913;51.120;6.772;2023-07-31T13:12:29;21.70;99.90
5775;DHT22;2913;51.120;6.772;2023-07-31T13:14:55;21.50;99.90
5775;DHT22;2913;51.120;6.772;2023-07-31T13:17:21;21.60;99.90
5775;DHT22;2913;51.120;6.772;2023-07-31T13:19:47;21.60;99.90
5775;DHT22;2913;51.120;6.772;2023-07-31T13:22:12;21.60;99.90
5775;DHT22;2913;51.120;6.772;2023-07-31T13:24:38;21.70;99.90
5775;DHT22;2913;51.120;6.772;2023-07-31T13:27:06;21.90;99.90
5775;DHT22;2913;51.120;6.772;2023-07-31T13:31:57;22.20;99.90
5775;DHT22;2913;51.120;6.772;2023-07-31T13:34:23;22.40;99.90
5775;DHT22;2913;51.120;6.772;2023-07-31T13:36:49;22.50;99.90
5775;DHT22;2913;51.120;6.772;2023-07-31T13:39:14;22.70;99.90
5775;DHT22;2913;51.120;6.772;2023-07-31T13:41:40;22.60;99.90
5775;DHT22;2913;51.120;6.772;2023-07-31T13:44:06;22.60;99.90
5775;DHT22;2913;51.120;6.772;2023-07-31T13:46:34;22.50;99.90
5775;DHT22;2913;51.120;6.772;2023-07-31T13:49:00;22.40;99.90
5775;DHT22;2913;51.120;6.772;2023-07-31T13:51:26;22.50;99.90
5775;DHT22;2913;51.120;6.772;2023-07-31T13:53:53;22.50;99.90
5775;DHT22;2913;51.120;6.772;2023-07-31T13:56:19;22.60;99.90
5775;DHT22;2913;51.120;6.772;2023-07-31T13:58:44;22.60;99.90
5775;DHT22;2913;51.120;6.772;2023-07-31T14:01:10;22.50;99.90
5775;DHT22;2913;51.120;6.772;2023-07-31T14:03:38;22.40;99.90
5775;DHT22;2913;51.120;6.772;2023-07-31T14:06:06;22.50;99.90
5775;DHT22;2913;51.120;6.772;2023-07-31T14:08:31;22.40;99.90
5775;DHT22;2913;51.120;6.772;2023-07-31T14:10:57;22.10;99.90
5775;DHT22;2913;51.120;6.772;2023-07-31T14:13:22;22.20;99.90
5775;DHT22;2913;51.120;6.772;2023-07-31T14:15:50;22.00;99.90
5775;DHT22;2913;51.120;6.772;2023-07-31T14:18:19;21.90;99.90
5775;DHT22;2913;51.120;6.772;2023-07-31T14:20:49;21.90;99.90
5775;DHT22;2913;51.120;6.772;2023-07-31T14:23:14;21.90;99.90
5775;DHT22;2913;51.120;6.772;2023-07-31T14:25:41;21.80;99.90
5775;DHT22;2913;51.120;6.772;2023-07-31T14:28:06;21.80;99.90
5775;DHT22;2913;51.120;6.772;2023-07-31T14:30:32;21.80;99.90
5775;DHT22;2913;51.120;6.772;2023-07-31T14:32:58;21.80;99.90
5775;DHT22;2913;51.120;6.772;2023-07-31T14:35:26;21.90;99.90
5775;DHT22;2913;51.120;6.772;2023-07-31T14:37:51;22.00;99.90
5775;DHT22;2913;51.120;6.772;2023-07-31T14:40:17;22.10;99.90
5775;DHT22;2913;51.120;6.772;2023-07-31T14:42:42;22.20;99.90
5775;DHT22;2913;51.120;6.772;2023-07-31T14:45:11;22.10;99.90
5775;DHT22;2913;51.120;6.772;2023-07-31T14:47:37;22.10;99.90
5775;DHT22;2913;51.120;6.772;2023-07-31T14:50:03;22.20;99.90
5775;DHT22;2913;51.120;6.772;2023-07-31T14:52:28;22.30;99.90
5775;DHT22;2913;51.120;6.772;2023-07-31T14:54:56;22.30;99.90
5775;DHT22;2913;51.120;6.772;2023-07-31T14:57:27;22.30;99.90
5775;DHT22;2913;51.120;6.772;2023-07-31T14:59:55;22.20;99.90
5775;DHT22;2913;51.120;6.772;2023-07-31T15:02:20;22.10;99.90
5775;DHT22;2913;51.120;6.772;2023-07-31T15:04:48;22.10;99.90
5775;DHT22;2913;51.120;6.772;2023-07-31T15:07:14;22.10;99.90
5775;DHT22;2913;51.120;6.772;2023-07-31T15:09:40;22.00;99.90
5775;DHT22;2913;51.120;6.772;2023-07-31T15:12:06;21.90;99.90
5775;DHT22;2913;51.120;6.772;2023-07-31T15:14:32;21.90;99.90
5775;DHT22;2913;51.120;6.772;2023-07-31T15:17:02;21.80;99.90
5775;DHT22;2913;51.120;6.772;2023-07-31T15:19:30;21.90;99.90
5775;DHT22;2913;51.120;6.772;2023-07-31T15:22:00;22.00;99.90
5775;DHT22;2913;51.120;6.772;2023-07-31T15:24:26;22.00;99.90
5775;DHT22;2913;51.120;6.772;2023-07-31T15:26:54;22.00;99.90
5775;DHT22;2913;51.120;6.772;2023-07-31T15:29:20;21.90;99.90
5775;DHT22;2913;51.120;6.772;2023-07-31T15:31:46;21.70;99.90
5775;DHT22;2913;51.120;6.772;2023-07-31T15:34:15;21.60;99.90
5775;DHT22;2913;51.120;6.772;2023-07-31T15:36:41;21.60;99.90
5775;DHT22;2913;51.120;6.772;2023-07-31T15:39:06;21.60;99.90
5775;DHT22;2913;51.120;6.772;2023-07-31T15:41:37;21.60;99.90
5775;DHT22;2913;51.120;6.772;2023-07-31T15:44:06;21.60;99.90
5775;DHT22;2913;51.120;6.772;2023-07-31T15:46:32;21.60;99.90
5775;DHT22;2913;51.120;6.772;2023-07-31T15:49:02;21.50;99.90
5775;DHT22;2913;51.120;6.772;2023-07-31T15:51:28;21.40;99.90
5775;DHT22;2913;51.120;6.772;2023-07-31T15:53:54;21.30;99.90
5775;DHT22;2913;51.120;6.772;2023-07-31T15:56:19;21.30;99.90
5775;DHT22;2913;51.120;6.772;2023-07-31T15:58:45;21.20;99.90
5775;DHT22;2913;51.120;6.772;2023-07-31T16:01:11;21.20;99.90
5775;DHT22;2913;51.120;6.772;2023-07-31T16:03:37;21.20;99.90
5775;DHT22;2913;51.120;6.772;2023-07-31T16:06:05;21.20;99.90
5775;DHT22;2913;51.120;6.772;2023-07-31T16:08:30;21.10;99.90
5775;DHT22;2913;51.120;6.772;2023-07-31T16:10:58;21.00;99.90
5775;DHT22;2913;51.120;6.772;2023-07-31T16:13:26;21.00;99.90
5775;DHT22;2913;51.120;6.772;2023-07-31T16:15:54;21.00;99.90
5775;DHT22;2913;51.120;6.772;2023-07-31T16:18:20;20.80;99.90
5775;DHT22;2913;51.120;6.772;2023-07-31T16:20:48;20.70;99.90
5775;DHT22;2913;51.120;6.772;2023-07-31T16:23:16;20.60;99.90
5775;DHT22;2913;51.120;6.772;2023-07-31T16:25:44;20.50;99.90
5775;DHT22;2913;51.120;6.772;2023-07-31T16:28:12;20.50;99.90
5775;DHT22;2913;51.120;6.772;2023-07-31T16:30:38;20.50;99.90
5775;DHT22;2913;51.120;6.772;2023-07-31T16:33:03;20.50;99.90
5775;DHT22;2913;51.120;6.772;2023-07-31T16:37:55;20.30;99.90
5775;DHT22;2913;51.120;6.772;2023-07-31T16:40:23;20.20;99.90